Terminal Aerodrome Forecast
Issued by NWS

Home | Current Version | Previous Version | Text Only | Print | Product List | Glossary On
Versions: 1 2 3 4 5 6 7 8 9 10 11 12
000
FTAK31 PAJN 300500
TAFAKT
TAF
PAKT 300540Z 3006/0106 31008KT P6SM SCT025 BKN050
      TEMPO 3006/3009 BKN025
     FM301000 32006KT P6SM SCT007 BKN035
     FM301700 32008KT P6SM SCT020 BKN050
     FM302100 34011KT P6SM SCT050 SCT150
      AMD LTD TO CLD VIS AND WIND 3006/3015=

USA.gov is the U.S. government's official web portal to all federal, state and local government web resources and services.